createdAt,value
2018-04-09T00:00:11.448Z,70.43
2018-04-09T00:02:39.184Z,70.40
2018-04-09T00:05:07.027Z,70.39
2018-04-09T00:07:34.685Z,70.36
2018-04-09T00:10:02.301Z,70.56
2018-04-09T00:12:29.964Z,70.94
2018-04-09T00:14:57.697Z,70.94
2018-04-09T00:17:25.348Z,71.04
2018-04-09T00:19:52.973Z,71.36
2018-04-09T00:22:20.566Z,71.44
2018-04-09T00:24:48.225Z,71.55
2018-04-09T00:27:15.858Z,72.04
2018-04-09T00:29:43.741Z,72.33
2018-04-09T00:32:11.368Z,72.29
2018-04-09T00:34:39.034Z,72.28
2018-04-09T00:37:06.705Z,72.77
2018-04-09T00:39:34.405Z,72.81
2018-04-09T00:42:01.994Z,72.79
2018-04-09T00:44:30.019Z,73.05
2018-04-09T00:46:57.880Z,73.07
2018-04-09T00:49:25.755Z,73.04
2018-04-09T00:51:53.361Z,73.09
2018-04-09T00:54:20.985Z,73.08
2018-04-09T00:56:48.693Z,73.13
2018-04-09T00:59:16.296Z,73.24
2018-04-09T01:01:43.934Z,73.46
2018-04-09T01:04:11.605Z,73.82
2018-04-09T01:06:39.273Z,73.91
2018-04-09T01:09:07.256Z,73.88
2018-04-09T01:11:34.857Z,73.77
2018-04-09T01:14:02.748Z,73.79
2018-04-09T01:16:30.395Z,74.13
2018-04-09T01:18:58.002Z,74.65
2018-04-09T01:21:26.100Z,74.77
2018-04-09T01:23:53.717Z,74.74
2018-04-09T01:26:21.334Z,74.88
2018-04-09T01:28:49.001Z,74.87
2018-04-09T01:31:16.623Z,74.80
2018-04-09T01:33:44.228Z,74.83
2018-04-09T01:36:11.854Z,74.79
2018-04-09T01:38:39.445Z,74.60
2018-04-09T01:41:07.087Z,74.53
2018-04-09T01:43:35.131Z,74.45
2018-04-09T01:46:02.873Z,74.46
2018-04-09T01:48:30.835Z,74.45
2018-04-09T01:50:58.704Z,74.73
2018-04-09T01:53:26.399Z,74.69
2018-04-09T01:55:54.008Z,74.62
2018-04-09T01:58:21.608Z,74.74
2018-04-09T02:00:49.245Z,74.87
2018-04-09T02:03:16.905Z,74.89
2018-04-09T02:05:44.544Z,74.82
2018-04-09T02:08:12.216Z,74.77
2018-04-09T02:10:39.866Z,74.76
2018-04-09T02:13:07.931Z,74.69
2018-04-09T02:15:35.520Z,74.64
2018-04-09T02:18:03.108Z,74.57
2018-04-09T02:20:31.002Z,74.74
2018-04-09T02:22:58.971Z,74.88
2018-04-09T02:25:26.642Z,74.84
2018-04-09T02:27:54.233Z,74.91
2018-04-09T02:30:22.215Z,75.05
2018-04-09T02:32:49.809Z,75.17
2018-04-09T02:35:17.428Z,75.21
2018-04-09T02:37:45.069Z,75.41
2018-04-09T02:40:13.015Z,75.46
2018-04-09T02:42:40.690Z,75.39
2018-04-09T02:45:08.338Z,75.31
2018-04-09T02:47:36.314Z,75.33
2018-04-09T02:50:03.943Z,75.32
2018-04-09T02:52:31.902Z,75.34
2018-04-09T02:54:59.502Z,75.24
2018-04-09T02:57:27.104Z,75.13
2018-04-09T02:59:54.719Z,75.32
2018-04-09T03:02:22.337Z,75.40
2018-04-09T03:04:50.094Z,75.49
2018-04-09T03:07:17.715Z,75.56
2018-04-09T03:09:45.301Z,75.59
2018-04-09T03:12:12.938Z,75.60
2018-04-09T03:14:40.611Z,75.87
2018-04-09T03:17:08.322Z,75.86
2018-04-09T03:19:35.907Z,75.96
2018-04-09T03:22:03.867Z,76.06
2018-04-09T03:24:31.452Z,76.22
2018-04-09T03:26:59.042Z,76.33
2018-04-09T03:29:26.742Z,76.47
2018-04-09T03:31:54.648Z,76.54
2018-04-09T03:34:22.271Z,76.67
2018-04-09T03:36:49.875Z,76.85
2018-04-09T03:39:17.535Z,76.91
2018-04-09T03:41:45.154Z,76.88
2018-04-09T03:44:12.764Z,76.94
2018-04-09T03:46:40.399Z,77.07
2018-04-09T03:49:08.000Z,77.25
2018-04-09T03:51:48.355Z,77.64
2018-04-09T03:54:16.048Z,77.87
2018-04-09T03:56:43.678Z,78.06
2018-04-09T03:59:11.629Z,78.20
2018-04-09T04:01:39.220Z,78.29
2018-04-09T04:04:06.910Z,78.46
2018-04-09T04:06:34.544Z,78.70
2018-04-09T04:09:02.151Z,79.24
2018-04-09T04:11:29.896Z,79.32
2018-04-09T04:13:57.493Z,79.45
2018-04-09T04:16:37.200Z,79.70
2018-04-09T04:19:16.790Z,79.99
2018-04-09T04:21:46.440Z,80.21
2018-04-09T04:24:14.053Z,80.20
2018-04-09T04:26:41.710Z,80.21
2018-04-09T04:29:09.371Z,80.22
2018-04-09T04:31:37.245Z,80.42
2018-04-09T04:34:04.909Z,80.48
2018-04-09T04:36:32.507Z,80.67
2018-04-09T04:39:00.641Z,80.84
2018-04-09T04:41:28.240Z,80.78
2018-04-09T04:43:56.169Z,80.78
2018-04-09T04:46:23.816Z,80.68
2018-04-09T04:48:51.720Z,80.38
2018-04-09T04:51:19.313Z,80.23
2018-04-09T04:53:46.968Z,80.06
2018-04-09T04:56:14.565Z,79.95
2018-04-09T04:58:42.395Z,79.80
2018-04-09T05:01:10.404Z,79.54
2018-04-09T05:03:38.005Z,79.42
2018-04-09T05:06:05.602Z,79.66
2018-04-09T05:08:33.311Z,79.73
2018-04-09T05:11:00.904Z,79.98
2018-04-09T05:13:28.501Z,80.17
2018-04-09T05:15:56.107Z,80.37
2018-04-09T05:18:24.069Z,80.10
2018-04-09T05:20:51.714Z,80.32
2018-04-09T05:23:19.340Z,80.53
2018-04-09T05:25:46.946Z,80.84
2018-04-09T05:28:14.563Z,80.88
2018-04-09T05:30:42.247Z,81.26
2018-04-09T05:33:09.944Z,81.16
2018-04-09T05:35:37.723Z,81.71
2018-04-09T05:38:05.374Z,82.08
2018-04-09T05:40:32.968Z,82.24
2018-04-09T05:43:00.991Z,82.45
2018-04-09T05:45:28.962Z,82.47
2018-04-09T05:47:56.642Z,82.93
2018-04-09T05:50:24.234Z,83.03
2018-04-09T05:52:51.853Z,83.39
2018-04-09T05:55:19.517Z,83.50
2018-04-09T05:57:47.374Z,84.13
2018-04-09T06:00:15.079Z,84.27
2018-04-09T06:02:43.012Z,84.36
2018-04-09T06:05:10.630Z,84.43
2018-04-09T06:07:38.312Z,84.56
2018-04-09T06:10:05.985Z,84.57
2018-04-09T06:12:33.894Z,84.40
2018-04-09T06:15:01.829Z,84.58
2018-04-09T06:17:29.506Z,84.59
2018-04-09T06:19:57.140Z,84.91
2018-04-09T06:22:24.976Z,84.54
2018-04-09T06:24:52.687Z,84.62
2018-04-09T06:27:20.358Z,84.55
2018-04-09T06:29:47.994Z,84.72
2018-04-09T06:32:15.657Z,84.78
2018-04-09T06:34:43.304Z,84.96
2018-04-09T06:37:11.026Z,84.88
2018-04-09T06:39:39.039Z,84.52
2018-04-09T06:42:07.050Z,84.68
2018-04-09T06:44:34.739Z,84.92
2018-04-09T06:47:02.467Z,84.69
2018-04-09T06:49:30.335Z,84.77
2018-04-09T06:51:57.926Z,84.96
2018-04-09T06:54:25.632Z,84.96
2018-04-09T06:56:53.296Z,85.21
2018-04-09T06:59:20.957Z,85.34
2018-04-09T07:01:48.672Z,85.11
2018-04-09T07:04:16.296Z,84.87
2018-04-09T07:06:44.246Z,84.13
2018-04-09T07:09:11.897Z,84.56
2018-04-09T07:11:39.529Z,84.39
2018-04-09T07:14:07.139Z,84.35
2018-04-09T07:16:34.881Z,84.37
2018-04-09T07:19:02.501Z,83.98
2018-04-09T07:21:30.104Z,84.00
2018-04-09T07:23:57.726Z,84.46
2018-04-09T07:26:25.488Z,84.48
2018-04-09T07:28:53.147Z,84.83
2018-04-09T07:31:20.757Z,85.15
2018-04-09T07:33:48.393Z,85.28
2018-04-09T07:36:16.236Z,85.06
2018-04-09T07:38:43.828Z,85.54
2018-04-09T07:41:11.490Z,85.11
2018-04-09T07:43:39.108Z,85.10
2018-04-09T07:46:06.973Z,84.91
2018-04-09T07:48:34.600Z,84.66
2018-04-09T07:51:02.504Z,85.14
2018-04-09T07:53:30.156Z,84.79
2018-04-09T07:55:57.757Z,84.94
2018-04-09T07:58:25.361Z,84.94
2018-04-09T08:00:53.256Z,84.86
2018-04-09T08:03:20.848Z,84.77
2018-04-09T08:05:48.473Z,84.82
2018-04-09T08:08:16.104Z,84.36
2018-04-09T08:10:43.829Z,84.02
2018-04-09T08:13:11.439Z,84.18
2018-04-09T08:15:39.096Z,83.62
2018-04-09T08:18:06.752Z,83.27
2018-04-09T08:20:34.351Z,82.02
2018-04-09T08:23:01.946Z,81.86
2018-04-09T08:25:29.632Z,81.25
2018-04-09T08:27:57.539Z,81.24
2018-04-09T08:30:25.177Z,80.60
2018-04-09T08:32:52.836Z,80.36
2018-04-09T08:35:20.672Z,79.97
2018-04-09T08:37:48.493Z,78.85
2018-04-09T08:40:16.209Z,78.03
2018-04-09T08:42:44.047Z,78.13
2018-04-09T08:45:11.735Z,78.31
2018-04-09T08:47:39.356Z,78.11
2018-04-09T08:50:07.218Z,77.99
2018-04-09T08:52:35.201Z,77.64
2018-04-09T08:55:02.792Z,77.68
2018-04-09T08:57:30.669Z,77.27
2018-04-09T08:59:58.324Z,76.17
2018-04-09T09:02:25.916Z,76.65
2018-04-09T09:04:53.606Z,75.92
2018-04-09T09:07:21.354Z,76.07
2018-04-09T09:09:48.982Z,75.49
2018-04-09T09:12:16.617Z,75.85
2018-04-09T09:14:44.560Z,75.39
2018-04-09T09:17:12.224Z,74.66
2018-04-09T09:19:40.373Z,74.91
2018-04-09T09:22:08.386Z,74.90
2018-04-09T09:24:36.059Z,74.84
2018-04-09T09:27:04.715Z,75.12
2018-04-09T09:29:32.370Z,75.21
2018-04-09T09:32:00.018Z,74.99
2018-04-09T09:34:27.609Z,74.58
2018-04-09T09:36:55.245Z,74.79
2018-04-09T09:39:22.884Z,74.46
2018-04-09T09:41:50.490Z,74.60
2018-04-09T09:44:18.361Z,74.00
2018-04-09T09:46:48.334Z,73.87
2018-04-09T09:49:15.965Z,73.25
2018-04-09T09:51:44.004Z,73.61
2018-04-09T09:54:11.748Z,73.39
2018-04-09T09:56:39.363Z,72.34
2018-04-09T09:59:06.981Z,72.67
2018-04-09T10:01:41.233Z,72.35
2018-04-09T10:04:08.887Z,72.12
2018-04-09T10:06:36.485Z,72.04
2018-04-09T10:09:04.499Z,71.34
2018-04-09T10:11:32.120Z,71.19
2018-04-09T10:13:59.799Z,70.63
2018-04-09T10:16:27.452Z,70.83
2018-04-09T10:18:55.107Z,70.36
2018-04-09T10:21:22.803Z,69.28
2018-04-09T10:23:50.463Z,69.14
2018-04-09T10:26:18.071Z,69.92
2018-04-09T10:28:45.715Z,69.98
2018-04-09T10:31:13.396Z,69.45
2018-04-09T10:33:41.095Z,67.86
2018-04-09T10:36:08.785Z,67.01
2018-04-09T10:38:36.459Z,66.29
2018-04-09T10:41:04.044Z,64.94
2018-04-09T10:43:31.658Z,65.06
2018-04-09T10:45:59.712Z,64.39
2018-04-09T10:48:27.322Z,62.94
2018-04-09T10:50:55.004Z,63.28
2018-04-09T10:53:22.932Z,63.24
2018-04-09T10:55:50.573Z,63.04
2018-04-09T10:58:18.494Z,63.56
2018-04-09T11:00:46.199Z,63.50
2018-04-09T11:03:13.825Z,63.48
2018-04-09T11:05:41.705Z,63.55
2018-04-09T11:08:09.365Z,62.20
2018-04-09T11:10:36.964Z,61.67
2018-04-09T11:13:04.850Z,61.04
2018-04-09T11:15:32.473Z,61.03
2018-04-09T11:18:00.143Z,61.53
2018-04-09T11:20:27.834Z,60.64
2018-04-09T11:22:55.415Z,59.01
2018-04-09T11:25:23.423Z,59.28
2018-04-09T11:27:51.021Z,58.89
2018-04-09T11:30:19.137Z,59.02
2018-04-09T11:32:46.852Z,57.98
2018-04-09T11:35:14.479Z,58.22
2018-04-09T11:37:42.105Z,57.23
2018-04-09T11:40:09.695Z,57.39
2018-04-09T11:42:37.354Z,57.79
2018-04-09T11:45:04.961Z,58.19
2018-04-09T11:47:32.534Z,57.83
2018-04-09T11:50:00.170Z,57.87
2018-04-09T11:52:27.768Z,57.10
2018-04-09T11:54:55.737Z,56.12
2018-04-09T11:57:23.515Z,55.91
2018-04-09T11:59:51.578Z,55.44
2018-04-09T12:02:19.221Z,55.30
2018-04-09T12:04:46.821Z,55.65
2018-04-09T12:07:14.440Z,54.89
2018-04-09T12:09:42.773Z,54.74
2018-04-09T12:12:10.504Z,54.62
2018-04-09T12:14:38.093Z,54.74
2018-04-09T12:17:05.807Z,54.00
2018-04-09T12:19:33.479Z,53.62
2018-04-09T12:22:01.157Z,53.65
2018-04-09T12:24:28.757Z,53.83
2018-04-09T12:26:56.352Z,53.50
2018-04-09T12:29:24.005Z,53.62
2018-04-09T12:31:51.897Z,53.35
2018-04-09T12:34:19.507Z,53.76
2018-04-09T12:36:47.262Z,52.96
2018-04-09T12:39:14.867Z,53.92
2018-04-09T12:41:42.515Z,53.63
2018-04-09T12:44:10.192Z,54.46
2018-04-09T12:46:37.884Z,54.02
2018-04-09T12:49:05.572Z,53.67
2018-04-09T12:51:33.496Z,53.49
2018-04-09T12:54:01.509Z,54.10
2018-04-09T12:56:29.125Z,54.27
2018-04-09T12:58:56.713Z,53.26
2018-04-09T13:01:24.400Z,52.91
2018-04-09T13:03:51.995Z,52.75
2018-04-09T13:06:19.610Z,53.41
2018-04-09T13:08:47.945Z,52.11
2018-04-09T13:11:15.542Z,52.07
2018-04-09T13:13:43.135Z,52.09
2018-04-09T13:16:10.754Z,52.93
2018-04-09T13:18:38.604Z,51.77
2018-04-09T13:21:06.568Z,52.11
2018-04-09T13:23:34.233Z,52.14
2018-04-09T13:26:01.893Z,52.62
2018-04-09T13:28:29.819Z,53.56
2018-04-09T13:30:57.457Z,52.72
2018-04-09T13:33:25.037Z,53.16
2018-04-09T13:35:53.244Z,53.55
2018-04-09T13:38:20.827Z,51.53
2018-04-09T13:40:48.428Z,51.35
2018-04-09T13:43:16.073Z,52.15
2018-04-09T13:45:43.742Z,52.47
2018-04-09T13:48:11.779Z,52.59
2018-04-09T13:50:39.497Z,52.47
2018-04-09T13:53:07.094Z,52.49
2018-04-09T13:55:34.703Z,52.01
2018-04-09T13:58:02.294Z,51.92
2018-04-09T14:00:30.293Z,51.88
2018-04-09T14:02:58.331Z,52.33
2018-04-09T14:05:26.145Z,52.85
2018-04-09T14:07:53.993Z,53.65
2018-04-09T14:10:22.031Z,52.08
2018-04-09T14:12:49.642Z,53.35
2018-04-09T14:15:17.261Z,53.01
2018-04-09T14:17:44.887Z,53.12
2018-04-09T14:20:12.616Z,53.24
2018-04-09T14:22:40.318Z,52.91
2018-04-09T14:25:07.960Z,52.75
2018-04-09T14:27:35.546Z,53.26
2018-04-09T14:30:03.525Z,52.83
2018-04-09T14:32:31.182Z,53.41
2018-04-09T14:34:58.870Z,52.42
2018-04-09T14:37:26.593Z,53.05
2018-04-09T14:39:54.238Z,53.88
2018-04-09T14:42:21.869Z,54.15
2018-04-09T14:44:49.546Z,54.43
2018-04-09T14:47:17.197Z,54.82
2018-04-09T14:49:45.185Z,54.79
2018-04-09T14:52:12.805Z,55.54
2018-04-09T14:54:40.449Z,54.64
2018-04-09T14:57:08.048Z,55.27
2018-04-09T14:59:38.804Z,55.73
2018-04-09T15:02:06.472Z,55.75
2018-04-09T15:04:34.530Z,56.19
2018-04-09T15:07:02.152Z,56.45
2018-04-09T15:09:29.772Z,56.57
2018-04-09T15:11:57.404Z,57.06
2018-04-09T15:14:25.000Z,57.53
2018-04-09T15:16:52.676Z,57.44
2018-04-09T15:19:20.316Z,57.65
2018-04-09T15:21:48.005Z,58.09
2018-04-09T15:24:15.633Z,58.03
2018-04-09T15:26:43.306Z,58.39
2018-04-09T15:29:10.939Z,58.82
2018-04-09T15:31:38.919Z,58.33
2018-04-09T15:34:06.530Z,58.30
2018-04-09T15:36:34.164Z,58.47
2018-04-09T15:39:02.007Z,58.25
2018-04-09T15:41:29.682Z,58.33
2018-04-09T15:43:57.649Z,58.61
2018-04-09T15:46:25.319Z,58.37
2018-04-09T15:48:52.959Z,58.86
2018-04-09T15:51:20.574Z,58.85
2018-04-09T15:53:48.179Z,58.93
2018-04-09T15:56:15.792Z,58.98
2018-04-09T15:58:43.396Z,59.27
2018-04-09T16:01:11.052Z,59.36
2018-04-09T16:03:38.638Z,59.30
2018-04-09T16:06:06.247Z,59.16
2018-04-09T16:08:34.174Z,59.36
2018-04-09T16:11:01.921Z,59.54
2018-04-09T16:13:29.523Z,59.87
2018-04-09T16:15:57.117Z,60.18
2018-04-09T16:18:24.799Z,60.66
2018-04-09T16:20:52.404Z,60.63
2018-04-09T16:23:20.007Z,61.05
2018-04-09T16:25:47.633Z,61.07
2018-04-09T16:28:15.256Z,60.94
2018-04-09T16:30:42.956Z,61.12
2018-04-09T16:33:10.666Z,61.27
2018-04-09T16:35:38.558Z,61.19
2018-04-09T16:38:06.152Z,61.11
2018-04-09T16:40:33.782Z,61.08
2018-04-09T16:43:01.523Z,61.08
2018-04-09T16:45:29.193Z,61.33
2018-04-09T16:47:56.904Z,61.15
2018-04-09T16:50:24.539Z,61.42
2018-04-09T16:52:52.228Z,61.37
2018-04-09T16:55:19.858Z,61.64
2018-04-09T16:57:47.511Z,61.79
2018-04-09T17:00:15.127Z,62.00
2018-04-09T17:02:43.053Z,62.84
2018-04-09T17:05:10.842Z,62.77
2018-04-09T17:07:38.485Z,62.88
2018-04-09T17:10:06.438Z,62.83
2018-04-09T17:12:34.127Z,63.33
2018-04-09T17:15:01.720Z,63.29
2018-04-09T17:17:29.578Z,63.78
2018-04-09T17:19:57.465Z,63.69
2018-04-09T17:22:25.063Z,63.60
2018-04-09T17:24:52.753Z,63.84
2018-04-09T17:27:20.341Z,64.31
2018-04-09T17:29:48.002Z,64.38
2018-04-09T17:32:15.625Z,64.31
2018-04-09T17:34:43.275Z,64.75
2018-04-09T17:37:11.055Z,64.83
2018-04-09T17:39:38.697Z,64.96
2018-04-09T17:42:06.881Z,65.27
2018-04-09T17:44:34.492Z,65.33
2018-04-09T17:47:02.771Z,65.47
2018-04-09T17:49:30.526Z,65.66
2018-04-09T17:51:58.160Z,65.86
2018-04-09T17:54:25.783Z,65.82
2018-04-09T17:56:53.398Z,65.87
2018-04-09T17:59:21.270Z,66.11
2018-04-09T18:01:49.387Z,66.43
2018-04-09T18:04:17.069Z,66.84
2018-04-09T18:06:44.746Z,66.84
2018-04-09T18:09:12.604Z,67.06
2018-04-09T18:11:40.246Z,67.54
2018-04-09T18:14:07.938Z,67.95
2018-04-09T18:16:35.545Z,68.17
2018-04-09T18:19:03.152Z,68.50
2018-04-09T18:21:30.804Z,68.58
2018-04-09T18:23:58.402Z,69.17
2018-04-09T18:26:26.109Z,69.28
2018-04-09T18:28:53.760Z,69.90
2018-04-09T18:31:21.504Z,70.20
2018-04-09T18:33:49.132Z,70.14
2018-04-09T18:36:16.747Z,70.32
2018-04-09T18:38:44.387Z,70.39
2018-04-09T18:41:12.009Z,70.71
2018-04-09T18:43:39.617Z,70.75
2018-04-09T18:46:07.231Z,70.79
2018-04-09T18:48:35.088Z,71.71
2018-04-09T18:51:03.232Z,72.01
2018-04-09T18:53:30.848Z,72.50
2018-04-09T18:55:58.447Z,72.43
2018-04-09T18:58:26.079Z,72.75
2018-04-09T19:00:53.725Z,72.89
2018-04-09T19:03:21.333Z,73.23
2018-04-09T19:05:48.973Z,73.53
2018-04-09T19:08:16.759Z,73.63
2018-04-09T19:10:44.399Z,73.87
2018-04-09T19:13:11.988Z,73.98
2018-04-09T19:15:39.982Z,74.35
2018-04-09T19:18:07.592Z,74.30
2018-04-09T19:20:35.288Z,74.61
2018-04-09T19:23:02.963Z,74.95
2018-04-09T19:25:30.627Z,75.05
2018-04-09T19:27:58.262Z,75.46
2018-04-09T19:30:25.912Z,75.33
2018-04-09T19:32:53.499Z,75.48
2018-04-09T19:35:21.135Z,75.95
2018-04-09T19:37:54.576Z,76.11
2018-04-09T19:40:28.177Z,75.75
2018-04-09T19:43:13.185Z,75.87
2018-04-09T19:45:58.284Z,75.70
2018-04-09T19:48:25.892Z,76.18
2018-04-09T19:50:53.850Z,76.29
2018-04-09T19:53:21.501Z,76.25
2018-04-09T19:55:49.191Z,76.38
2018-04-09T19:58:17.004Z,76.98
2018-04-09T20:00:44.642Z,76.90
2018-04-09T20:03:12.311Z,77.12
2018-04-09T20:05:39.958Z,77.20
2018-04-09T20:08:07.926Z,77.02
2018-04-09T20:10:35.668Z,77.40
2018-04-09T20:13:03.748Z,77.41
2018-04-09T20:15:31.454Z,77.75
2018-04-09T20:17:59.093Z,77.96
2018-04-09T20:20:26.929Z,77.76
2018-04-09T20:22:55.554Z,78.26
2018-04-09T20:25:23.286Z,78.44
2018-04-09T20:27:50.950Z,78.17
2018-04-09T20:30:18.643Z,78.05
2018-04-09T20:32:46.542Z,78.27
2018-04-09T20:35:14.219Z,78.36
2018-04-09T20:37:42.022Z,78.42
2018-04-09T20:40:10.227Z,78.42
2018-04-09T20:42:41.207Z,78.46
2018-04-09T20:45:08.883Z,78.65
2018-04-09T20:47:36.500Z,78.75
2018-04-09T20:50:05.070Z,78.83
2018-04-09T20:52:32.720Z,78.88
2018-04-09T20:55:00.330Z,78.62
2018-04-09T20:57:28.315Z,78.73
2018-04-09T20:59:55.924Z,78.59
2018-04-09T21:02:23.555Z,78.50
2018-04-09T21:04:51.169Z,78.48
2018-04-09T21:07:18.808Z,78.68
2018-04-09T21:09:46.481Z,78.44
2018-04-09T21:12:14.144Z,78.64
2018-04-09T21:14:41.816Z,78.55
2018-04-09T21:17:09.461Z,78.57
2018-04-09T21:19:37.115Z,78.38
2018-04-09T21:22:04.758Z,78.34
2018-04-09T21:24:32.616Z,78.35
2018-04-09T21:27:00.299Z,78.22
2018-04-09T21:29:27.963Z,78.26
2018-04-09T21:31:55.562Z,78.44
2018-04-09T21:34:23.211Z,78.32
2018-04-09T21:36:50.897Z,78.56
2018-04-09T21:39:18.496Z,78.43
2018-04-09T21:41:46.180Z,78.61
2018-04-09T21:44:13.757Z,78.47
2018-04-09T21:46:41.357Z,78.56
2018-04-09T21:49:09.001Z,78.59
2018-04-09T21:51:36.604Z,78.71
2018-04-09T21:54:04.471Z,78.88
2018-04-09T21:56:32.267Z,78.87
2018-04-09T21:59:00.167Z,78.73
2018-04-09T22:01:27.811Z,78.85
2018-04-09T22:03:56.118Z,78.93
2018-04-09T22:06:24.147Z,79.03
2018-04-09T22:08:51.973Z,79.07
2018-04-09T22:11:20.033Z,79.30
2018-04-09T22:13:47.658Z,79.33
2018-04-09T22:16:15.759Z,79.25
2018-04-09T22:18:43.424Z,79.15
2018-04-09T22:21:12.732Z,79.44
2018-04-09T22:23:41.122Z,79.70
2018-04-09T22:26:09.514Z,79.78
2018-04-09T22:28:37.154Z,79.59
2018-04-09T22:31:04.782Z,79.68
2018-04-09T22:33:32.415Z,79.71
2018-04-09T22:36:00.062Z,79.74
2018-04-09T22:38:27.659Z,79.92
2018-04-09T22:40:55.285Z,79.75
2018-04-09T22:43:23.038Z,79.67
2018-04-09T22:45:50.730Z,79.55
2018-04-09T22:48:18.375Z,79.76
2018-04-09T22:50:46.416Z,79.55
2018-04-09T22:53:14.133Z,79.68
2018-04-09T22:55:41.760Z,79.77
2018-04-09T22:58:09.480Z,79.87
2018-04-09T23:00:37.085Z,80.00
2018-04-09T23:03:04.694Z,79.81
2018-04-09T23:05:32.368Z,79.81
2018-04-09T23:07:59.994Z,79.56
2018-04-09T23:10:27.903Z,79.56
2018-04-09T23:12:56.012Z,79.52
2018-04-09T23:15:24.087Z,79.64
2018-04-09T23:17:51.955Z,79.42
2018-04-09T23:20:19.921Z,79.40
2018-04-09T23:22:47.909Z,79.42
2018-04-09T23:25:16.077Z,79.51
2018-04-09T23:27:43.925Z,79.51
2018-04-09T23:30:11.620Z,79.44
2018-04-09T23:32:39.284Z,79.31
2018-04-09T23:35:07.134Z,79.01
2018-04-09T23:37:34.883Z,78.91
2018-04-09T23:40:02.516Z,78.86
2018-04-09T23:42:31.112Z,79.05
2018-04-09T23:44:58.789Z,78.95
2018-04-09T23:47:26.426Z,78.91
2018-04-09T23:49:54.028Z,78.68
2018-04-09T23:52:22.871Z,78.79
2018-04-09T23:54:50.603Z,78.72
2018-04-09T23:57:18.346Z,78.59
2018-04-09T23:59:45.960Z,78.49
